Time;durP1;ratioP1;P1;durP2;ratioP2;P2;SDS_P1;SDS_P2;PMS_P1;PMS_P2;Temp;Humidity;BMP_temperature;BMP_pressure;BME280_temperature;BME280_humidity;BME280_pressure;Samples;Min_cycle;Max_cycle;Signal;HPM_P1;HPM_P2
2022/07/04 00:00:52;;;;;;;3.72;2.58;;;14.10;99.90;;;;;;5005650;28;20041;-52
2022/07/04 00:03:18;;;;;;;4.10;2.72;;;14.20;99.90;;;;;;5017530;28;20060;-52
2022/07/04 00:05:44;;;;;;;3.88;2.53;;;14.20;99.90;;;;;;5015824;28;20063;-51
2022/07/04 00:08:10;;;;;;;6.95;3.25;;;14.20;99.90;;;;;;4996478;28;20053;-49
2022/07/04 00:10:35;;;;;;;4.15;2.05;;;14.10;99.90;;;;;;5030117;28;20111;-51
2022/07/04 00:13:01;;;;;;;4.53;3.22;;;14.00;99.90;;;;;;5009140;28;20056;-50
2022/07/04 00:15:27;;;;;;;5.80;2.45;;;14.00;99.90;;;;;;5013677;28;20388;-50
2022/07/04 00:17:53;;;;;;;5.57;3.67;;;14.00;99.90;;;;;;5016761;28;20091;-51
2022/07/04 00:20:19;;;;;;;6.35;3.78;;;14.00;99.90;;;;;;5017162;28;20055;-53
2022/07/04 00:22:45;;;;;;;5.10;3.40;;;14.00;99.90;;;;;;5012995;28;20163;-49
2022/07/04 00:25:10;;;;;;;6.38;3.97;;;13.90;99.90;;;;;;5012886;28;20048;-49
2022/07/04 00:27:36;;;;;;;7.00;3.70;;;13.90;99.90;;;;;;5009014;28;20036;-52
2022/07/04 00:30:04;;;;;;;6.22;3.30;;;13.90;99.90;;;;;;5015432;28;20059;-51
2022/07/04 00:32:29;;;;;;;6.57;3.75;;;13.90;99.90;;;;;;5028912;28;20041;-52
2022/07/04 00:34:55;;;;;;;5.45;3.35;;;13.90;99.90;;;;;;5005698;28;20045;-50
2022/07/04 00:37:21;;;;;;;10.27;4.28;;;13.90;99.90;;;;;;5014559;28;20110;-51
2022/07/04 00:39:47;;;;;;;4.55;2.88;;;13.90;99.90;;;;;;5010036;28;20120;-52
2022/07/04 00:42:13;;;;;;;5.35;3.83;;;13.90;99.90;;;;;;5011166;28;20037;-50
2022/07/04 00:44:39;;;;;;;6.97;3.72;;;13.80;99.90;;;;;;5014568;28;20056;-50
2022/07/04 00:47:05;;;;;;;5.57;3.10;;;13.80;99.90;;;;;;5007264;28;20040;-53
2022/07/04 00:49:31;;;;;;;5.47;4.03;;;13.80;99.90;;;;;;5009628;28;20049;-52
2022/07/04 00:51:58;;;;;;;5.80;3.83;;;13.80;99.90;;;;;;5011320;28;20424;-52
2022/07/04 00:54:27;;;;;;;5.55;3.55;;;13.90;99.90;;;;;;5006562;28;20231;-52
2022/07/04 00:56:54;;;;;;;6.80;4.03;;;13.90;99.90;;;;;;5015294;28;22305;-51
2022/07/04 00:59:20;;;;;;;7.15;3.75;;;13.90;99.90;;;;;;5011438;28;20060;-52
2022/07/04 01:01:46;;;;;;;6.45;3.92;;;13.80;99.90;;;;;;5032687;28;20574;-52
2022/07/04 01:04:12;;;;;;;4.75;3.38;;;13.80;99.90;;;;;;5011292;28;20055;-50
2022/07/04 01:06:38;;;;;;;5.63;3.65;;;13.70;99.90;;;;;;5018089;28;20049;-47
2022/07/04 01:09:04;;;;;;;6.80;4.30;;;13.70;99.90;;;;;;5019622;28;20540;-52
2022/07/04 01:11:30;;;;;;;7.25;3.65;;;13.70;99.90;;;;;;4998653;28;20076;-51
2022/07/04 01:13:57;;;;;;;5.85;4.20;;;13.70;99.90;;;;;;5011366;28;20484;-52
2022/07/04 01:16:25;;;;;;;5.65;3.90;;;13.70;99.90;;;;;;5004389;28;20069;-53
2022/07/04 01:18:52;;;;;;;5.25;3.70;;;13.70;99.90;;;;;;4992566;28;20413;-49
2022/07/04 01:21:18;;;;;;;5.25;4.30;;;13.60;99.90;;;;;;5015810;28;20048;-50
2022/07/04 01:23:45;;;;;;;5.63;3.67;;;13.60;99.90;;;;;;5010226;28;20051;-50
2022/07/04 01:26:11;;;;;;;5.78;4.18;;;13.50;99.90;;;;;;4996830;28;20475;-51
2022/07/04 01:28:38;;;;;;;6.13;4.30;;;13.50;99.90;;;;;;5018365;28;20376;-50
2022/07/04 01:31:04;;;;;;;7.68;4.93;;;13.40;99.90;;;;;;5011948;28;20519;-51
2022/07/04 01:33:30;;;;;;;5.22;4.40;;;13.40;99.90;;;;;;5010536;28;20118;-52
2022/07/04 01:35:56;;;;;;;5.88;4.47;;;13.40;99.90;;;;;;5007641;28;20458;-51
2022/07/04 01:38:22;;;;;;;6.20;4.57;;;13.40;99.90;;;;;;5011435;28;20179;-51
2022/07/04 01:40:48;;;;;;;6.82;4.95;;;13.30;99.90;;;;;;5014833;28;20504;-51
2022/07/04 01:43:14;;;;;;;8.00;5.32;;;13.30;99.90;;;;;;5014551;28;20487;-49
2022/07/04 01:45:39;;;;;;;7.53;5.13;;;13.30;99.90;;;;;;5006823;28;20037;-50
2022/07/04 01:48:06;;;;;;;7.22;4.90;;;13.30;99.90;;;;;;5012116;28;20561;-48
2022/07/04 01:50:33;;;;;;;7.95;5.05;;;13.30;99.90;;;;;;5008792;28;20041;-51
2022/07/04 01:52:59;;;;;;;5.78;4.57;;;12.70;99.90;;;;;;5009352;28;20551;-53
2022/07/04 01:55:25;;;;;;;6.57;5.13;;;13.30;99.90;;;;;;5011805;28;20029;-52
2022/07/04 01:57:51;;;;;;;7.18;4.75;;;13.30;99.90;;;;;;5010133;28;20428;-52
2022/07/04 02:03:02;;;;;;;8.30;5.40;;;13.30;99.90;;;;;;5006585;28;20073;-50
2022/07/04 02:05:27;;;;;;;6.07;5.13;;;13.30;99.90;;;;;;5009515;28;20171;-51
2022/07/04 02:07:53;;;;;;;7.90;5.10;;;13.30;99.90;;;;;;4992836;28;20491;-51
2022/07/04 02:10:20;;;;;;;10.30;5.97;;;13.30;99.90;;;;;;5009386;28;20214;-50
2022/07/04 02:13:01;;;;;;;6.45;4.95;;;13.20;99.90;;;;;;5005841;28;20053;-50
2022/07/04 02:15:40;;;;;;;7.22;5.85;;;13.20;99.90;;;;;;5005316;28;21204;-50
2022/07/04 02:18:08;;;;;;;8.65;6.25;;;13.30;99.90;;;;;;5012888;28;20083;-55
2022/07/04 02:20:34;;;;;;;6.78;5.85;;;13.30;99.90;;;;;;5013709;28;20518;-52
2022/07/04 02:23:01;;;;;;;9.52;5.53;;;13.30;99.90;;;;;;5010133;28;20061;-51
2022/07/04 02:25:27;;;;;;;9.90;6.57;;;13.30;99.90;;;;;;5012157;28;20040;-49
2022/07/04 02:27:53;;;;;;;8.23;6.05;;;13.30;99.90;;;;;;5011015;28;20130;-54
2022/07/04 02:30:19;;;;;;;7.75;5.50;;;13.30;99.90;;;;;;5010647;28;20045;-52
2022/07/04 02:32:44;;;;;;;7.78;5.63;;;13.30;99.90;;;;;;5006445;28;20040;-54
2022/07/04 02:35:11;;;;;;;8.48;6.53;;;13.30;99.90;;;;;;5010160;28;20547;-52
2022/07/04 02:37:37;;;;;;;7.72;6.28;;;13.30;99.90;;;;;;5029835;28;20048;-53
2022/07/04 02:40:04;;;;;;;10.50;7.22;;;13.30;99.90;;;;;;5005612;28;20532;-52
2022/07/04 02:42:32;;;;;;;10.32;6.50;;;13.30;99.90;;;;;;5008285;28;20191;-52
2022/07/04 02:44:57;;;;;;;8.73;6.10;;;13.30;99.90;;;;;;5024507;28;20539;-50
2022/07/04 02:47:23;;;;;;;8.95;6.30;;;13.30;99.90;;;;;;5006611;28;20041;-52
2022/07/04 02:49:49;;;;;;;6.47;5.80;;;13.40;99.90;;;;;;5008130;28;20068;-52
2022/07/04 02:52:15;;;;;;;7.47;5.65;;;13.40;99.90;;;;;;5016132;28;20072;-53
2022/07/04 02:54:41;;;;;;;7.70;6.15;;;13.40;99.90;;;;;;5012910;28;20052;-53
2022/07/04 02:57:07;;;;;;;8.95;6.40;;;13.40;99.90;;;;;;5021079;28;20643;-50
2022/07/04 02:59:33;;;;;;;9.50;6.72;;;13.40;99.90;;;;;;5005668;28;20078;-53
2022/07/04 03:01:59;;;;;;;7.22;5.72;;;13.40;99.90;;;;;;5022045;28;20977;-54
2022/07/04 03:04:25;;;;;;;7.22;5.28;;;13.40;99.90;;;;;;5006645;28;20037;-52
2022/07/04 03:06:50;;;;;;;9.57;6.38;;;13.50;99.90;;;;;;4999771;28;20076;-53
2022/07/04 03:09:16;;;;;;;7.10;5.35;;;13.60;99.90;;;;;;5023419;28;21534;-55
2022/07/04 03:11:43;;;;;;;10.63;6.68;;;13.60;99.90;;;;;;5005853;28;20044;-53
2022/07/04 03:14:09;;;;;;;9.60;6.72;;;13.60;99.90;;;;;;5025020;28;20041;-53
2022/07/04 03:16:35;;;;;;;8.43;6.32;;;13.70;99.90;;;;;;5022494;28;20087;-52
2022/07/04 03:19:01;;;;;;;7.22;4.63;;;13.70;99.90;;;;;;5007524;28;20036;-50
2022/07/04 03:21:26;;;;;;;7.93;6.30;;;13.60;99.90;;;;;;5016885;28;20380;-51
2022/07/04 03:23:58;;;;;;;8.60;6.57;;;13.70;99.90;;;;;;5007525;28;20040;-51
2022/07/04 03:26:31;;;;;;;8.30;5.90;;;13.60;99.90;;;;;;5007851;28;20487;-51
2022/07/04 03:28:58;;;;;;;7.03;6.28;;;13.60;99.90;;;;;;5010255;28;20496;-52
2022/07/04 03:31:25;;;;;;;9.10;6.50;;;13.60;99.90;;;;;;5025417;28;21889;-51
2022/07/04 03:33:51;;;;;;;9.77;6.25;;;13.70;99.90;;;;;;5011111;28;20052;-56
2022/07/04 03:36:19;;;;;;;8.13;5.75;;;13.70;99.90;;;;;;5009494;28;21234;-52
2022/07/04 03:38:46;;;;;;;7.88;6.63;;;13.80;99.90;;;;;;5004816;28;20140;-53
2022/07/04 03:41:12;;;;;;;8.40;7.00;;;13.80;99.90;;;;;;5010792;28;20056;-52
2022/07/04 03:43:38;;;;;;;9.10;6.28;;;13.80;99.90;;;;;;5005862;28;20045;-50
2022/07/04 03:46:03;;;;;;;9.65;6.57;;;13.80;99.90;;;;;;5006669;28;20045;-50
2022/07/04 03:48:29;;;;;;;7.18;5.63;;;13.90;99.90;;;;;;5009006;28;20033;-49
2022/07/04 03:50:55;;;;;;;10.35;6.88;;;13.90;99.90;;;;;;5007595;28;20041;-56
2022/07/04 03:53:21;;;;;;;6.63;5.93;;;13.90;99.90;;;;;;5012398;28;20477;-51
2022/07/04 03:55:47;;;;;;;8.13;6.32;;;13.90;99.90;;;;;;5010932;28;20581;-51
2022/07/04 03:58:13;;;;;;;10.55;7.15;;;13.90;99.90;;;;;;5022422;28;20049;-50
2022/07/04 04:00:39;;;;;;;9.90;6.93;;;13.90;99.90;;;;;;5028796;28;20377;-49
2022/07/04 04:05:26;;;;;;;8.80;6.90;;;13.90;99.90;;;;;;5019484;28;20051;-50
2022/07/04 04:05:54;;;;;;;6.38;3.95;;;14.00;99.90;;;;;;5011665;28;20141;-52
2022/07/04 04:08:20;;;;;;;11.65;7.75;;;14.00;99.90;;;;;;5008388;28;20033;-50
2022/07/04 04:10:45;;;;;;;6.85;4.25;;;14.00;99.90;;;;;;5009928;28;20048;-51
2022/07/04 04:13:11;;;;;;;10.18;6.35;;;14.00;99.90;;;;;;4999076;28;20044;-52
2022/07/04 04:15:37;;;;;;;13.23;7.45;;;14.10;99.90;;;;;;5012598;28;20040;-50
2022/07/04 04:18:03;;;;;;;11.10;6.85;;;14.10;99.90;;;;;;5007379;28;20053;-50
2022/07/04 04:20:28;;;;;;;12.07;7.45;;;14.10;99.90;;;;;;5032531;28;20032;-49
2022/07/04 04:22:54;;;;;;;9.07;6.40;;;14.20;99.90;;;;;;5003882;28;20459;-51
2022/07/04 04:25:20;;;;;;;15.93;6.50;;;14.20;99.90;;;;;;5013214;28;21533;-52
2022/07/04 04:27:46;;;;;;;11.60;6.82;;;14.20;99.90;;;;;;5009977;28;20053;-52
2022/07/04 04:30:11;;;;;;;9.10;6.80;;;14.30;99.90;;;;;;5014939;28;20048;-51
2022/07/04 04:32:37;;;;;;;10.57;5.72;;;14.30;99.90;;;;;;5009089;28;20099;-52
2022/07/04 04:35:03;;;;;;;11.80;6.25;;;14.30;99.90;;;;;;5014727;28;20176;-52
2022/07/04 04:37:29;;;;;;;8.75;6.68;;;14.30;99.90;;;;;;5009076;28;20080;-52
2022/07/04 04:39:57;;;;;;;9.40;6.03;;;14.30;99.90;;;;;;5007480;28;20439;-55
2022/07/04 04:42:23;;;;;;;10.82;6.90;;;14.40;99.90;;;;;;5012145;28;20495;-52
2022/07/04 04:44:49;;;;;;;9.80;5.90;;;14.40;99.90;;;;;;5019031;28;20045;-52
2022/07/04 04:47:14;;;;;;;12.02;5.40;;;14.40;99.90;;;;;;5008159;28;20345;-53
2022/07/04 04:49:40;;;;;;;7.95;6.15;;;14.40;99.90;;;;;;5011806;28;20123;-52
2022/07/04 04:52:06;;;;;;;8.68;5.22;;;14.50;99.90;;;;;;5023455;28;20037;-52
2022/07/04 04:54:33;;;;;;;13.25;6.35;;;14.50;99.90;;;;;;5018220;28;20543;-51
2022/07/04 04:56:59;;;;;;;12.73;7.25;;;14.50;99.90;;;;;;5032247;28;20085;-52
2022/07/04 04:59:26;;;;;;;10.98;5.80;;;14.60;99.90;;;;;;5017351;28;20433;-54
2022/07/04 05:01:52;;;;;;;9.65;5.57;;;14.60;99.90;;;;;;5011496;28;20345;-52
2022/07/04 05:04:20;;;;;;;8.95;5.95;;;14.60;99.90;;;;;;5012378;22;20160;-52
2022/07/04 05:06:46;;;;;;;8.32;4.78;;;14.70;99.90;;;;;;4980957;28;20120;-54
2022/07/04 05:09:11;;;;;;;7.38;5.25;;;14.70;99.90;;;;;;5000935;28;20050;-56
2022/07/04 05:11:37;;;;;;;10.98;6.00;;;14.80;99.90;;;;;;4991448;28;20074;-56
2022/07/04 05:14:03;;;;;;;12.30;5.70;;;14.80;99.90;;;;;;4970872;28;20060;-55
2022/07/04 05:16:29;;;;;;;9.82;5.18;;;14.90;99.90;;;;;;4976507;28;20054;-55
2022/07/04 05:18:54;;;;;;;10.77;6.40;;;15.00;99.90;;;;;;4970688;28;20504;-56
2022/07/04 05:21:20;;;;;;;7.03;5.05;;;15.10;99.90;;;;;;4980448;28;20074;-57
2022/07/04 05:23:46;;;;;;;10.07;6.38;;;15.20;99.90;;;;;;4950559;28;20046;-56
2022/07/04 05:26:12;;;;;;;8.60;5.47;;;15.30;99.90;;;;;;4968744;28;20121;-56
2022/07/04 05:28:37;;;;;;;9.48;5.53;;;15.30;99.90;;;;;;4973622;28;20077;-56
2022/07/04 05:31:03;;;;;;;7.70;5.43;;;15.40;99.90;;;;;;4991822;28;22303;-56
2022/07/04 05:33:29;;;;;;;8.57;5.45;;;15.50;99.90;;;;;;4996434;28;20046;-57
2022/07/04 05:35:54;;;;;;;7.88;5.22;;;15.50;99.90;;;;;;4978985;28;20050;-55
2022/07/04 05:38:20;;;;;;;10.27;5.55;;;15.60;99.90;;;;;;4990042;28;20143;-56
2022/07/04 05:40:46;;;;;;;8.13;5.13;;;15.70;99.90;;;;;;4959696;28;20225;-56
2022/07/04 05:43:11;;;;;;;8.20;5.00;;;15.80;99.90;;;;;;4981453;28;20133;-57
2022/07/04 05:45:37;;;;;;;10.07;5.03;;;15.90;99.90;;;;;;4974681;28;20065;-56
2022/07/04 05:48:03;;;;;;;10.40;5.05;;;16.00;99.90;;;;;;4984303;28;20072;-56
2022/07/04 05:50:29;;;;;;;7.32;5.05;;;16.10;99.90;;;;;;4984549;28;20049;-57
2022/07/04 05:52:55;;;;;;;8.80;5.18;;;16.20;99.90;;;;;;4968360;28;20397;-57
2022/07/04 05:55:20;;;;;;;10.13;5.38;;;16.30;99.90;;;;;;4966373;28;20045;-56
2022/07/04 05:57:46;;;;;;;11.15;5.57;;;16.40;99.90;;;;;;4946443;28;20336;-56
2022/07/04 06:00:12;;;;;;;6.65;4.40;;;16.50;99.90;;;;;;4949125;28;20065;-56
2022/07/04 06:02:38;;;;;;;9.25;4.93;;;16.60;99.90;;;;;;4970037;28;20045;-56
2022/07/04 06:05:04;;;;;;;8.55;4.28;;;16.80;99.90;;;;;;4939781;28;20296;-56
2022/07/04 06:07:30;;;;;;;7.65;4.75;;;16.90;99.90;;;;;;4984767;28;20038;-57
2022/07/04 06:09:58;;;;;;;8.68;5.28;;;16.90;99.90;;;;;;4987794;28;20768;-56
2022/07/04 06:12:24;;;;;;;12.48;5.05;;;17.00;99.90;;;;;;4984129;28;20641;-56
2022/07/04 06:14:50;;;;;;;9.55;4.32;;;17.10;99.90;;;;;;4984245;28;20034;-56
2022/07/04 06:17:16;;;;;;;9.27;4.90;;;17.20;99.90;;;;;;4951773;28;20446;-59
2022/07/04 06:19:41;;;;;;;10.27;4.43;;;17.10;99.90;;;;;;4968335;28;20037;-56
2022/07/04 06:22:07;;;;;;;11.63;4.85;;;17.10;99.90;;;;;;4979116;28;20665;-57
2022/07/04 06:24:33;;;;;;;10.63;4.63;;;17.10;99.90;;;;;;4981856;28;20600;-56
2022/07/04 06:26:58;;;;;;;8.38;4.22;;;17.10;99.90;;;;;;4988644;28;20038;-57
2022/07/04 06:29:24;;;;;;;11.57;4.75;;;17.10;99.90;;;;;;4984114;28;20537;-57
2022/07/04 06:31:50;;;;;;;5.70;4.20;;;17.10;99.90;;;;;;4969162;28;20066;-57
2022/07/04 06:37:00;;;;;;;8.32;4.03;;;17.20;99.90;;;;;;4969266;28;20046;-56
2022/07/04 06:39:26;;;;;;;7.15;3.65;;;17.30;99.90;;;;;;4982559;28;20324;-56
2022/07/04 06:41:51;;;;;;;9.75;3.33;;;17.40;99.90;;;;;;4986324;28;20046;-62
2022/07/04 06:44:17;;;;;;;7.70;3.13;;;17.50;99.90;;;;;;4988474;28;20685;-57
2022/07/04 06:46:44;;;;;;;8.52;3.03;;;17.50;99.90;;;;;;4948375;28;20572;-57
2022/07/04 06:49:10;;;;;;;6.60;3.10;;;17.50;99.90;;;;;;4964987;28;20171;-57
2022/07/04 06:51:36;;;;;;;8.57;2.67;;;17.40;99.90;;;;;;4991796;28;20072;-56
2022/07/04 06:54:01;;;;;;;5.57;2.70;;;17.90;99.90;;;;;;4954334;28;20487;-57
2022/07/04 06:56:27;;;;;;;10.35;2.67;;;17.90;99.90;;;;;;4990056;28;20675;-56
2022/07/04 06:58:53;;;;;;;5.40;2.30;;;17.80;99.90;;;;;;4950088;28;20827;-56
2022/07/04 07:01:19;;;;;;;7.35;3.13;;;17.80;99.90;;;;;;4981960;28;20077;-57
2022/07/04 07:03:44;;;;;;;7.43;2.33;;;17.70;99.90;;;;;;4969351;28;20042;-57
2022/07/04 07:06:10;;;;;;;5.95;2.20;;;17.80;99.90;;;;;;4987648;28;20054;-57
2022/07/04 07:08:36;;;;;;;5.22;2.08;;;18.00;99.90;;;;;;4953616;28;20338;-57
2022/07/04 07:11:12;;;;;;;6.28;2.40;;;18.20;99.90;;;;;;4976947;28;20057;-57
2022/07/04 07:13:49;;;;;;;4.65;2.17;;;18.30;99.90;;;;;;4986495;28;20051;-57
2022/07/04 07:16:15;;;;;;;3.80;1.83;;;18.40;99.90;;;;;;4971084;28;20050;-56
2022/07/04 07:18:41;;;;;;;3.92;1.50;;;18.40;99.90;;;;;;4987283;28;20041;-57
2022/07/04 07:21:07;;;;;;;3.63;1.20;;;18.60;99.90;;;;;;4975740;28;20042;-57
2022/07/04 07:23:32;;;;;;;6.03;1.35;;;18.60;99.90;;;;;;4974828;28;20088;-57
2022/07/04 07:25:58;;;;;;;9.18;1.73;;;18.50;99.90;;;;;;4964132;28;20057;-58
2022/07/04 07:28:24;;;;;;;4.50;1.20;;;18.50;99.90;;;;;;4960301;28;20046;-58
2022/07/04 07:30:50;;;;;;;2.72;1.38;;;18.60;99.90;;;;;;4954940;28;20050;-58
2022/07/04 07:33:15;;;;;;;2.13;1.05;;;18.70;99.90;;;;;;4987653;28;20045;-58
2022/07/04 07:35:41;;;;;;;3.72;1.10;;;18.80;99.90;;;;;;4987845;28;20516;-58
2022/07/04 07:38:07;;;;;;;2.85;1.20;;;18.80;99.90;;;;;;4975332;28;20171;-57
2022/07/04 07:40:33;;;;;;;2.67;1.17;;;18.80;99.90;;;;;;4996919;28;20049;-57
2022/07/04 07:42:59;;;;;;;2.30;0.85;;;18.80;99.90;;;;;;4982338;28;20046;-58
2022/07/04 07:45:25;;;;;;;4.00;1.20;;;18.70;99.90;;;;;;4941414;28;20056;-56
2022/07/04 07:47:51;;;;;;;4.25;1.38;;;18.80;99.90;;;;;;4989550;28;20140;-56
2022/07/04 07:50:16;;;;;;;2.35;1.10;;;18.80;99.90;;;;;;4991125;28;20045;-57
2022/07/04 07:52:42;;;;;;;6.10;1.85;;;18.80;99.90;;;;;;4977933;28;20161;-57
2022/07/04 07:55:08;;;;;;;2.08;1.17;;;18.80;99.90;;;;;;4992118;28;20387;-56
2022/07/04 07:57:34;;;;;;;3.15;1.10;;;19.00;99.90;;;;;;4953806;28;20527;-56
2022/07/04 07:59:59;;;;;;;6.60;1.17;;;19.10;99.90;;;;;;4952291;28;22149;-55
2022/07/04 08:05:11;;;;;;;2.63;0.95;;;19.10;99.90;;;;;;4987058;28;20062;-55
2022/07/04 08:07:38;;;;;;;4.63;1.48;;;19.10;99.90;;;;;;4977433;28;20322;-56
2022/07/04 08:10:04;;;;;;;3.08;1.20;;;19.10;99.90;;;;;;4991410;28;20152;-53
2022/07/04 08:12:30;;;;;;;3.70;1.00;;;19.20;99.90;;;;;;4988799;28;20455;-55
2022/07/04 08:14:57;;;;;;;3.30;0.98;;;19.40;99.90;;;;;;4977305;28;20062;-52
2022/07/04 08:17:23;;;;;;;6.28;1.15;;;19.50;99.90;;;;;;4958715;28;20096;-57
2022/07/04 08:19:49;;;;;;;3.83;1.08;;;19.60;99.90;;;;;;4985172;28;20632;-56
2022/07/04 08:22:15;;;;;;;8.75;1.45;;;19.70;99.90;;;;;;4968481;28;20038;-57
2022/07/04 08:24:42;;;;;;;4.55;1.20;;;19.70;99.90;;;;;;4939339;28;20054;-55
2022/07/04 08:27:07;;;;;;;1.75;1.05;;;19.70;99.90;;;;;;4975743;28;21257;-55
2022/07/04 08:29:34;;;;;;;4.10;1.35;;;19.70;99.90;;;;;;4973066;28;20061;-54
2022/07/04 08:32:00;;;;;;;3.92;1.30;;;19.60;99.90;;;;;;4988786;28;20049;-55
2022/07/04 08:34:26;;;;;;;4.25;1.02;;;19.80;99.90;;;;;;4995826;28;20390;-56
2022/07/04 08:36:51;;;;;;;4.00;1.38;;;20.00;99.90;;;;;;4984978;28;20128;-55
2022/07/04 08:39:17;;;;;;;2.55;0.98;;;20.10;99.90;;;;;;4979254;28;20045;-55
2022/07/04 08:41:43;;;;;;;1.95;1.13;;;20.30;99.90;;;;;;4980878;28;20048;-52
2022/07/04 08:44:11;;;;;;;3.67;1.23;;;20.50;99.90;;;;;;4944553;28;20045;-56
2022/07/04 08:46:39;;;;;;;4.07;1.20;;;20.60;99.90;;;;;;4960784;28;20232;-56
2022/07/04 08:49:26;;;;;;;3.53;1.52;;;20.40;99.90;;;;;;4977385;28;20491;-57
2022/07/04 08:51:58;;;;;;;4.35;1.55;;;20.40;99.90;;;;;;4986449;28;20093;-57
2022/07/04 08:59:56;;;;;;;3.33;1.33;;;20.60;99.30;;;;;;4978102;28;20050;-57
2022/07/04 09:02:23;;;;;;;1.77;1.30;;;20.70;99.40;;;;;;4992497;28;20060;-56
2022/07/04 09:04:50;;;;;;;5.93;1.38;;;20.70;99.30;;;;;;4977002;28;20085;-56
2022/07/04 09:07:15;;;;;;;3.85;1.20;;;21.00;99.20;;;;;;4983620;28;20072;-55
2022/07/04 09:09:42;;;;;;;3.83;1.20;;;21.20;99.00;;;;;;4984785;28;20038;-57
2022/07/04 09:12:11;;;;;;;2.08;1.13;;;21.10;98.60;;;;;;4987414;28;20045;-56
2022/07/04 09:14:37;;;;;;;2.17;1.33;;;21.20;98.70;;;;;;4956064;28;20041;-57
2022/07/04 09:17:05;;;;;;;4.32;1.58;;;21.10;98.60;;;;;;4994312;28;20287;-56
2022/07/04 09:19:32;;;;;;;4.22;1.45;;;20.80;98.80;;;;;;4973689;28;22730;-58
2022/07/04 09:22:10;;;;;;;3.60;1.50;;;20.60;99.00;;;;;;4960674;28;20050;-56
2022/07/04 09:24:53;;;;;;;2.60;1.38;;;20.00;99.00;;;;;;4978191;28;20050;-56
2022/07/04 09:27:35;;;;;;;3.88;1.40;;;19.70;99.70;;;;;;4988725;28;20088;-58
2022/07/04 09:30:03;;;;;;;1.65;1.17;;;19.60;99.90;;;;;;4966669;28;20049;-55
2022/07/04 09:32:43;;;;;;;3.45;1.33;;;19.80;99.90;;;;;;4973455;28;20076;-55
2022/07/04 09:35:11;;;;;;;2.97;1.33;;;19.60;99.90;;;;;;4975196;28;20129;-57
2022/07/04 09:37:48;;;;;;;2.58;1.63;;;19.70;99.70;;;;;;4975676;28;20105;-56
2022/07/04 09:40:30;;;;;;;3.60;1.40;;;20.20;99.90;;;;;;4965938;28;20049;-55
2022/07/04 09:42:57;;;;;;;3.33;1.30;;;20.20;99.50;;;;;;4965921;28;20785;-57
2022/07/04 09:45:24;;;;;;;1.67;1.20;;;20.20;99.60;;;;;;4965879;28;20192;-57
2022/07/04 09:47:57;;;;;;;4.65;1.10;;;20.10;98.80;;;;;;4967939;28;20465;-58
2022/07/04 09:50:25;;;;;;;4.90;1.60;;;20.20;98.70;;;;;;4995977;28;20050;-57
2022/07/04 09:53:02;;;;;;;2.90;1.48;;;20.30;99.20;;;;;;4993776;28;20042;-56
2022/07/04 09:55:34;;;;;;;3.38;1.33;;;20.20;98.90;;;;;;5000302;28;20134;-57
2022/07/04 09:58:11;;;;;;;4.15;1.10;;;20.20;98.30;;;;;;4961330;28;20137;-57
2022/07/04 10:00:47;;;;;;;3.47;1.33;;;20.10;98.20;;;;;;4981065;28;20530;-58
2022/07/04 10:03:26;;;;;;;4.90;1.45;;;20.20;97.60;;;;;;4966240;28;20050;-56
2022/07/04 10:06:08;;;;;;;3.47;1.38;;;20.30;98.00;;;;;;4962930;28;20104;-57
2022/07/04 10:08:34;;;;;;;2.35;1.20;;;20.30;97.70;;;;;;4961476;28;20050;-57
2022/07/04 10:11:01;;;;;;;6.15;2.20;;;20.60;98.50;;;;;;4976634;28;21284;-57
2022/07/04 10:13:27;;;;;;;4.35;1.50;;;20.80;98.70;;;;;;5010738;28;20041;-56
2022/07/04 10:15:53;;;;;;;1.65;0.88;;;20.90;96.80;;;;;;4992848;28;20508;-58
2022/07/04 10:18:21;;;;;;;1.80;0.77;;;21.00;96.70;;;;;;4980566;28;20042;-57
2022/07/04 10:20:51;;;;;;;2.75;1.05;;;21.10;96.60;;;;;;5008577;28;20050;-57
2022/07/04 10:23:18;;;;;;;3.38;1.10;;;21.40;96.60;;;;;;5004258;28;20096;-57
2022/07/04 10:25:51;;;;;;;3.15;1.13;;;21.60;95.60;;;;;;5007798;28;20584;-58
2022/07/04 10:28:17;;;;;;;1.38;0.80;;;21.60;94.10;;;;;;4968421;28;20404;-58
2022/07/04 10:30:49;;;;;;;2.00;0.90;;;21.70;94.90;;;;;;4958994;28;20057;-58
2022/07/04 10:33:15;;;;;;;2.47;1.23;;;21.80;95.00;;;;;;4974872;28;20061;-58
2022/07/04 10:35:53;;;;;;;2.45;0.98;;;21.90;95.30;;;;;;4991425;28;20520;-58
2022/07/04 10:38:26;;;;;;;3.08;0.90;;;22.10;94.00;;;;;;5013512;28;20099;-57
2022/07/04 10:40:56;;;;;;;3.23;1.00;;;22.20;93.30;;;;;;4970770;28;20048;-59
2022/07/04 10:43:31;;;;;;;3.95;1.00;;;22.30;93.10;;;;;;5015923;28;20424;-59
2022/07/04 10:46:23;;;;;;;3.13;1.10;;;22.30;92.70;;;;;;4998039;28;20061;-59
2022/07/04 10:48:58;;;;;;;3.53;0.98;;;22.30;92.60;;;;;;4977269;28;20054;-57
2022/07/04 10:51:52;;;;;;;1.85;1.00;;;22.20;91.20;;;;;;4997537;28;20049;-57
2022/07/04 10:54:19;;;;;;;4.90;1.23;;;21.90;90.30;;;;;;4999738;28;20133;-56
2022/07/04 10:56:52;;;;;;;4.57;1.52;;;21.60;92.00;;;;;;4978869;28;20069;-56
2022/07/04 10:59:27;;;;;;;2.75;1.20;;;21.90;91.70;;;;;;4997053;28;20417;-57
2022/07/04 11:02:08;;;;;;;3.58;1.38;;;22.00;92.00;;;;;;4995834;28;20045;-57
2022/07/04 11:05:15;;;;;;;3.67;1.08;;;22.00;91.20;;;;;;5012050;23;20049;-57
2022/07/04 11:07:40;;;;;;;3.30;0.93;;;21.70;90.30;;;;;;5005104;28;20049;-54
2022/07/04 11:13:02;;;;;;;2.85;1.20;;;21.70;91.00;;;;;;5029807;28;21013;-56
2022/07/04 11:15:28;;;;;;;2.30;1.10;;;21.20;90.20;;;;;;5034108;28;20100;-54
2022/07/04 11:18:08;;;;;;;2.50;0.90;;;21.40;90.70;;;;;;5042609;28;22035;-56
2022/07/04 11:20:36;;;;;;;2.05;0.95;;;21.40;90.70;;;;;;5001177;28;20045;-58
2022/07/04 11:23:10;;;;;;;2.95;1.40;;;21.80;91.10;;;;;;5033456;28;20045;-55
2022/07/04 11:25:37;;;;;;;2.95;1.13;;;22.00;89.30;;;;;;5016941;28;20037;-56
2022/07/04 11:28:31;;;;;;;2.10;0.90;;;22.00;88.20;;;;;;5019787;28;20037;-54
2022/07/04 11:31:00;;;;;;;4.40;0.90;;;22.20;88.60;;;;;;5002439;28;20034;-56
2022/07/04 11:33:28;;;;;;;1.92;1.08;;;22.40;90.10;;;;;;5042932;28;20080;-52
2022/07/04 11:36:20;;;;;;;3.65;1.10;;;22.30;89.20;;;;;;5016697;28;20853;-56
2022/07/04 11:39:06;;;;;;;4.38;1.00;;;22.40;89.30;;;;;;5047218;28;20053;-57
2022/07/04 11:47:19;;;;;;;2.83;1.00;;;22.20;86.80;;;;;;5043542;28;20069;-53
2022/07/04 11:49:51;;;;;;;4.45;1.10;;;22.10;90.10;;;;;;5047174;28;20295;-55
2022/07/04 11:52:20;;;;;;;3.08;1.00;;;22.00;90.30;;;;;;5025733;28;20037;-54
2022/07/04 11:54:49;;;;;;;4.20;1.08;;;22.50;90.50;;;;;;5048858;28;20095;-53
2022/07/04 11:57:21;;;;;;;2.63;0.90;;;22.70;90.30;;;;;;5007183;28;20136;-52
2022/07/04 12:00:04;;;;;;;2.70;1.00;;;22.50;86.40;;;;;;5039097;28;20033;-54
2022/07/04 12:02:32;;;;;;;;;;;22.30;85.60;;;;;;5051731;28;20616;-56
2022/07/04 12:04:59;;;;;;;2.95;1.10;;;22.40;86.70;;;;;;5009624;28;20314;-56
2022/07/04 12:07:27;;;;;;;2.20;1.25;;;22.30;86.60;;;;;;5029781;28;20041;-54
2022/07/04 12:09:54;;;;;;;3.83;0.80;;;22.20;82.90;;;;;;5012508;28;21194;-54
2022/07/04 12:12:21;;;;;;;2.33;1.00;;;22.40;85.00;;;;;;5011698;28;20085;-56
2022/07/04 12:15:07;;;;;;;2.97;0.85;;;22.60;84.80;;;;;;5018961;28;20041;-59
2022/07/04 12:17:39;;;;;;;4.03;0.80;;;22.30;82.30;;;;;;4990067;28;20045;-54
2022/07/04 12:20:20;;;;;;;1.50;0.90;;;21.80;83.70;;;;;;5029878;28;20485;-56
2022/07/04 12:22:58;;;;;;;3.75;0.95;;;21.80;85.60;;;;;;5050655;28;20107;-55
2022/07/04 12:25:38;;;;;;;3.00;0.68;;;22.00;87.70;;;;;;5047903;28;20404;-55
2022/07/04 12:28:15;;;;;;;2.53;0.80;;;21.90;86.90;;;;;;5048240;28;20045;-53
2022/07/04 12:30:50;;;;;;;2.50;0.98;;;21.60;86.20;;;;;;5012025;28;20075;-56
2022/07/04 12:33:19;;;;;;;1.88;0.70;;;21.40;85.30;;;;;;5041138;28;20053;-55
2022/07/04 12:35:50;;;;;;;1.38;0.70;;;21.50;86.50;;;;;;5043498;28;20404;-55
2022/07/04 12:38:22;;;;;;;3.22;0.90;;;21.80;87.90;;;;;;5044574;28;20137;-57
2022/07/04 12:41:02;;;;;;;3.65;1.00;;;21.90;86.50;;;;;;5042606;28;20404;-55
2022/07/04 12:43:43;;;;;;;3.05;0.95;;;21.70;87.30;;;;;;5043338;28;20049;-53
2022/07/04 12:46:10;;;;;;;1.63;0.80;;;21.60;85.90;;;;;;5034779;28;20042;-56
2022/07/04 12:48:37;;;;;;;2.35;0.88;;;21.90;85.50;;;;;;5015323;28;20033;-58
2022/07/04 12:51:33;;;;;;;10.05;0.90;;;21.70;83.90;;;;;;5002497;28;20600;-55
2022/07/04 12:54:06;;;;;;;4.97;1.48;;;22.20;86.70;;;;;;5005909;28;20064;-56
2022/07/04 12:56:34;;;;;;;2.90;0.90;;;22.10;83.60;;;;;;5031737;28;20112;-57
2022/07/04 12:59:04;;;;;;;1.35;0.80;;;21.90;86.40;;;;;;4996416;28;20130;-56
2022/07/04 13:01:30;;;;;;;3.67;1.20;;;22.50;83.00;;;;;;5025423;28;20049;-58
2022/07/04 13:03:56;;;;;;;3.58;0.57;;;22.60;84.20;;;;;;5004559;28;20048;-56
2022/07/04 13:06:23;;;;;;;2.25;0.70;;;22.50;85.20;;;;;;5024271;28;20029;-58
2022/07/04 13:08:52;;;;;;;2.88;0.70;;;22.20;83.50;;;;;;4994741;28;20038;-58
2022/07/04 13:14:03;;;;;;;3.70;0.80;;;22.00;86.30;;;;;;4996731;28;20042;-58
2022/07/04 13:16:29;;;;;;;1.88;0.80;;;22.10;84.20;;;;;;4998147;28;20088;-54